sensor_id;sensor_type;location;lat;lon;timestamp;P1;durP1;ratioP1;P2;durP2;ratioP2
62863;SDS011;48954;59.950;11.014;2023-07-31T00:02:18;4.60;;;2.30;;
62863;SDS011;48954;59.950;11.014;2023-07-31T00:04:44;9.70;;;3.00;;
62863;SDS011;48954;59.950;11.014;2023-07-31T00:07:10;9.40;;;2.30;;
62863;SDS011;48954;59.950;11.014;2023-07-31T00:09:36;9.50;;;2.50;;
62863;SDS011;48954;59.950;11.014;2023-07-31T00:12:03;6.30;;;2.50;;
62863;SDS011;48954;59.950;11.014;2023-07-31T00:14:29;6.20;;;2.80;;
62863;SDS011;48954;59.950;11.014;2023-07-31T00:16:55;7.30;;;2.70;;
62863;SDS011;48954;59.950;11.014;2023-07-31T00:19:21;9.30;;;2.80;;
62863;SDS011;48954;59.950;11.014;2023-07-31T00:21:47;7.30;;;2.60;;
62863;SDS011;48954;59.950;11.014;2023-07-31T00:24:13;8.40;;;2.70;;
62863;SDS011;48954;59.950;11.014;2023-07-31T00:26:39;6.30;;;2.20;;
62863;SDS011;48954;59.950;11.014;2023-07-31T00:29:07;8.50;;;2.70;;
62863;SDS011;48954;59.950;11.014;2023-07-31T00:31:34;6.10;;;2.20;;
62863;SDS011;48954;59.950;11.014;2023-07-31T00:34:03;8.40;;;2.60;;
62863;SDS011;48954;59.950;11.014;2023-07-31T00:36:30;10.00;;;2.40;;
62863;SDS011;48954;59.950;11.014;2023-07-31T00:39:00;7.40;;;2.80;;
62863;SDS011;48954;59.950;11.014;2023-07-31T00:41:41;6.10;;;2.50;;
62863;SDS011;48954;59.950;11.014;2023-07-31T00:44:21;6.40;;;2.40;;
62863;SDS011;48954;59.950;11.014;2023-07-31T00:46:54;7.60;;;2.60;;
62863;SDS011;48954;59.950;11.014;2023-07-31T00:49:22;9.30;;;2.90;;
62863;SDS011;48954;59.950;11.014;2023-07-31T00:51:51;6.60;;;2.70;;
62863;SDS011;48954;59.950;11.014;2023-07-31T00:54:24;7.20;;;3.20;;
62863;SDS011;48954;59.950;11.014;2023-07-31T00:57:12;7.20;;;2.60;;
62863;SDS011;48954;59.950;11.014;2023-07-31T00:59:38;7.30;;;2.80;;
62863;SDS011;48954;59.950;11.014;2023-07-31T01:02:18;7.40;;;2.80;;
62863;SDS011;48954;59.950;11.014;2023-07-31T01:04:47;7.20;;;2.40;;
62863;SDS011;48954;59.950;11.014;2023-07-31T01:12:34;7.60;;;2.40;;
62863;SDS011;48954;59.950;11.014;2023-07-31T01:15:05;8.40;;;2.60;;
62863;SDS011;48954;59.950;11.014;2023-07-31T01:17:37;7.60;;;2.50;;
62863;SDS011;48954;59.950;11.014;2023-07-31T01:20:10;6.80;;;2.30;;
62863;SDS011;48954;59.950;11.014;2023-07-31T01:28:40;9.10;;;2.70;;
62863;SDS011;48954;59.950;11.014;2023-07-31T01:31:36;6.30;;;2.80;;
62863;SDS011;48954;59.950;11.014;2023-07-31T01:34:08;9.40;;;2.50;;
62863;SDS011;48954;59.950;11.014;2023-07-31T01:36:41;9.70;;;2.80;;
62863;SDS011;48954;59.950;11.014;2023-07-31T01:39:09;8.50;;;2.40;;
62863;SDS011;48954;59.950;11.014;2023-07-31T01:41:36;4.60;;;2.80;;
62863;SDS011;48954;59.950;11.014;2023-07-31T01:44:04;9.30;;;3.70;;
62863;SDS011;48954;59.950;11.014;2023-07-31T01:46:32;5.70;;;2.50;;
62863;SDS011;48954;59.950;11.014;2023-07-31T01:49:00;6.50;;;2.60;;
62863;SDS011;48954;59.950;11.014;2023-07-31T01:51:27;7.60;;;2.90;;
62863;SDS011;48954;59.950;11.014;2023-07-31T01:53:55;5.10;;;2.30;;
62863;SDS011;48954;59.950;11.014;2023-07-31T01:56:36;4.30;;;2.20;;
62863;SDS011;48954;59.950;11.014;2023-07-31T01:59:03;6.50;;;2.80;;
62863;SDS011;48954;59.950;11.014;2023-07-31T02:01:30;9.30;;;3.00;;
62863;SDS011;48954;59.950;11.014;2023-07-31T02:03:56;6.30;;;2.30;;
62863;SDS011;48954;59.950;11.014;2023-07-31T02:06:27;6.10;;;2.50;;
62863;SDS011;48954;59.950;11.014;2023-07-31T02:08:53;8.50;;;2.60;;
62863;SDS011;48954;59.950;11.014;2023-07-31T02:11:20;6.20;;;2.50;;
62863;SDS011;48954;59.950;11.014;2023-07-31T02:13:47;6.50;;;2.40;;
62863;SDS011;48954;59.950;11.014;2023-07-31T02:16:14;6.20;;;2.70;;
62863;SDS011;48954;59.950;11.014;2023-07-31T02:18:40;7.10;;;2.60;;
62863;SDS011;48954;59.950;11.014;2023-07-31T02:21:07;6.20;;;2.70;;
62863;SDS011;48954;59.950;11.014;2023-07-31T02:23:34;7.20;;;2.80;;
62863;SDS011;48954;59.950;11.014;2023-07-31T02:26:00;4.00;;;2.30;;
62863;SDS011;48954;59.950;11.014;2023-07-31T02:28:26;9.40;;;2.60;;
62863;SDS011;48954;59.950;11.014;2023-07-31T02:30:53;5.60;;;2.60;;
62863;SDS011;48954;59.950;11.014;2023-07-31T02:33:20;10.20;;;4.00;;
62863;SDS011;48954;59.950;11.014;2023-07-31T02:35:46;6.10;;;2.40;;
62863;SDS011;48954;59.950;11.014;2023-07-31T02:38:12;5.50;;;2.60;;
62863;SDS011;48954;59.950;11.014;2023-07-31T02:40:40;6.80;;;2.80;;
62863;SDS011;48954;59.950;11.014;2023-07-31T02:43:06;4.90;;;2.20;;
62863;SDS011;48954;59.950;11.014;2023-07-31T02:45:33;8.50;;;3.10;;
62863;SDS011;48954;59.950;11.014;2023-07-31T02:48:04;6.10;;;2.40;;
62863;SDS011;48954;59.950;11.014;2023-07-31T02:50:32;8.70;;;2.90;;
62863;SDS011;48954;59.950;11.014;2023-07-31T02:52:58;4.30;;;2.20;;
62863;SDS011;48954;59.950;11.014;2023-07-31T02:55:25;7.00;;;2.70;;
62863;SDS011;48954;59.950;11.014;2023-07-31T02:57:51;5.80;;;2.40;;
62863;SDS011;48954;59.950;11.014;2023-07-31T03:00:17;6.20;;;2.80;;
62863;SDS011;48954;59.950;11.014;2023-07-31T03:02:45;6.30;;;2.50;;
62863;SDS011;48954;59.950;11.014;2023-07-31T03:05:11;4.40;;;2.80;;
62863;SDS011;48954;59.950;11.014;2023-07-31T03:07:39;4.70;;;2.40;;
62863;SDS011;48954;59.950;11.014;2023-07-31T03:10:06;6.20;;;2.60;;
62863;SDS011;48954;59.950;11.014;2023-07-31T03:12:34;10.80;;;3.00;;
62863;SDS011;48954;59.950;11.014;2023-07-31T03:15:05;4.70;;;2.40;;
62863;SDS011;48954;59.950;11.014;2023-07-31T03:17:34;6.80;;;3.50;;
62863;SDS011;48954;59.950;11.014;2023-07-31T03:20:01;6.30;;;2.60;;
62863;SDS011;48954;59.950;11.014;2023-07-31T03:22:29;8.20;;;2.60;;
62863;SDS011;48954;59.950;11.014;2023-07-31T03:24:56;7.70;;;3.10;;
62863;SDS011;48954;59.950;11.014;2023-07-31T03:27:22;5.30;;;2.40;;
62863;SDS011;48954;59.950;11.014;2023-07-31T03:29:50;9.80;;;3.00;;
62863;SDS011;48954;59.950;11.014;2023-07-31T03:32:17;4.80;;;2.70;;
62863;SDS011;48954;59.950;11.014;2023-07-31T03:34:44;5.70;;;2.60;;
62863;SDS011;48954;59.950;11.014;2023-07-31T03:37:23;7.80;;;2.50;;
62863;SDS011;48954;59.950;11.014;2023-07-31T03:39:49;5.10;;;2.50;;
62863;SDS011;48954;59.950;11.014;2023-07-31T03:42:15;8.20;;;2.80;;
62863;SDS011;48954;59.950;11.014;2023-07-31T03:44:41;5.40;;;2.50;;
62863;SDS011;48954;59.950;11.014;2023-07-31T03:47:08;4.90;;;2.50;;
62863;SDS011;48954;59.950;11.014;2023-07-31T03:49:34;4.50;;;2.40;;
62863;SDS011;48954;59.950;11.014;2023-07-31T03:52:00;6.70;;;2.40;;
62863;SDS011;48954;59.950;11.014;2023-07-31T03:54:26;6.90;;;2.50;;
62863;SDS011;48954;59.950;11.014;2023-07-31T03:56:52;8.30;;;2.60;;
62863;SDS011;48954;59.950;11.014;2023-07-31T03:59:19;7.80;;;2.80;;
62863;SDS011;48954;59.950;11.014;2023-07-31T04:01:46;5.50;;;2.50;;
62863;SDS011;48954;59.950;11.014;2023-07-31T04:04:12;7.80;;;2.40;;
62863;SDS011;48954;59.950;11.014;2023-07-31T04:06:38;8.20;;;2.90;;
62863;SDS011;48954;59.950;11.014;2023-07-31T04:09:05;10.10;;;3.10;;
62863;SDS011;48954;59.950;11.014;2023-07-31T04:11:31;9.40;;;3.20;;
62863;SDS011;48954;59.950;11.014;2023-07-31T04:13:58;7.40;;;3.20;;
62863;SDS011;48954;59.950;11.014;2023-07-31T04:16:24;6.40;;;2.60;;
62863;SDS011;48954;59.950;11.014;2023-07-31T04:18:50;6.70;;;2.60;;
62863;SDS011;48954;59.950;11.014;2023-07-31T04:21:16;5.50;;;2.70;;
62863;SDS011;48954;59.950;11.014;2023-07-31T04:23:42;5.50;;;2.50;;
62863;SDS011;48954;59.950;11.014;2023-07-31T04:26:08;11.60;;;2.90;;
62863;SDS011;48954;59.950;11.014;2023-07-31T04:28:34;7.00;;;2.50;;
62863;SDS011;48954;59.950;11.014;2023-07-31T04:31:01;5.60;;;2.50;;
62863;SDS011;48954;59.950;11.014;2023-07-31T04:33:27;10.00;;;3.10;;
62863;SDS011;48954;59.950;11.014;2023-07-31T04:35:53;7.70;;;2.30;;
62863;SDS011;48954;59.950;11.014;2023-07-31T04:38:20;4.70;;;2.50;;
62863;SDS011;48954;59.950;11.014;2023-07-31T04:40:47;6.20;;;2.40;;
62863;SDS011;48954;59.950;11.014;2023-07-31T04:43:13;9.20;;;3.10;;
62863;SDS011;48954;59.950;11.014;2023-07-31T04:45:39;7.40;;;2.20;;
62863;SDS011;48954;59.950;11.014;2023-07-31T04:48:07;6.20;;;2.40;;
62863;SDS011;48954;59.950;11.014;2023-07-31T04:50:36;9.70;;;2.80;;
62863;SDS011;48954;59.950;11.014;2023-07-31T04:53:02;5.50;;;2.60;;
62863;SDS011;48954;59.950;11.014;2023-07-31T04:55:28;8.30;;;2.90;;
62863;SDS011;48954;59.950;11.014;2023-07-31T04:57:55;11.70;;;2.90;;
62863;SDS011;48954;59.950;11.014;2023-07-31T05:00:21;6.20;;;2.40;;
62863;SDS011;48954;59.950;11.014;2023-07-31T05:02:46;5.60;;;2.40;;
62863;SDS011;48954;59.950;11.014;2023-07-31T05:05:12;6.20;;;2.60;;
62863;SDS011;48954;59.950;11.014;2023-07-31T05:07:39;5.80;;;2.70;;
62863;SDS011;48954;59.950;11.014;2023-07-31T05:10:05;5.30;;;2.50;;
62863;SDS011;48954;59.950;11.014;2023-07-31T05:12:32;6.40;;;2.30;;
62863;SDS011;48954;59.950;11.014;2023-07-31T05:15:00;5.40;;;2.40;;
62863;SDS011;48954;59.950;11.014;2023-07-31T05:17:29;8.00;;;3.20;;
62863;SDS011;48954;59.950;11.014;2023-07-31T05:20:09;8.10;;;2.50;;
62863;SDS011;48954;59.950;11.014;2023-07-31T05:22:51;6.60;;;2.60;;
62863;SDS011;48954;59.950;11.014;2023-07-31T05:25:32;8.20;;;2.60;;
62863;SDS011;48954;59.950;11.014;2023-07-31T05:28:09;7.00;;;2.10;;
62863;SDS011;48954;59.950;11.014;2023-07-31T05:30:52;5.80;;;1.90;;
62863;SDS011;48954;59.950;11.014;2023-07-31T05:33:39;6.50;;;2.40;;
62863;SDS011;48954;59.950;11.014;2023-07-31T05:36:06;7.10;;;2.30;;
62863;SDS011;48954;59.950;11.014;2023-07-31T05:38:34;5.90;;;2.10;;
62863;SDS011;48954;59.950;11.014;2023-07-31T05:41:03;7.20;;;3.00;;
62863;SDS011;48954;59.950;11.014;2023-07-31T05:43:29;8.10;;;2.30;;
62863;SDS011;48954;59.950;11.014;2023-07-31T05:45:56;5.60;;;2.30;;
62863;SDS011;48954;59.950;11.014;2023-07-31T05:48:23;5.20;;;1.80;;
62863;SDS011;48954;59.950;11.014;2023-07-31T05:50:49;6.90;;;2.20;;
62863;SDS011;48954;59.950;11.014;2023-07-31T05:53:15;6.30;;;2.50;;
62863;SDS011;48954;59.950;11.014;2023-07-31T05:55:43;6.10;;;2.10;;
62863;SDS011;48954;59.950;11.014;2023-07-31T05:58:11;3.20;;;1.80;;
62863;SDS011;48954;59.950;11.014;2023-07-31T06:00:38;6.00;;;2.20;;
62863;SDS011;48954;59.950;11.014;2023-07-31T06:03:09;7.70;;;2.40;;
62863;SDS011;48954;59.950;11.014;2023-07-31T06:05:35;3.80;;;1.60;;
62863;SDS011;48954;59.950;11.014;2023-07-31T06:08:03;4.20;;;1.60;;
62863;SDS011;48954;59.950;11.014;2023-07-31T06:10:30;5.10;;;1.70;;
62863;SDS011;48954;59.950;11.014;2023-07-31T06:12:59;5.80;;;1.70;;
62863;SDS011;48954;59.950;11.014;2023-07-31T06:15:29;7.10;;;2.20;;
62863;SDS011;48954;59.950;11.014;2023-07-31T06:17:55;5.20;;;1.70;;
62863;SDS011;48954;59.950;11.014;2023-07-31T06:20:21;5.40;;;1.90;;
62863;SDS011;48954;59.950;11.014;2023-07-31T06:22:49;7.60;;;2.20;;
62863;SDS011;48954;59.950;11.014;2023-07-31T06:25:15;7.10;;;1.90;;
62863;SDS011;48954;59.950;11.014;2023-07-31T06:27:41;5.30;;;2.30;;
62863;SDS011;48954;59.950;11.014;2023-07-31T06:30:07;3.50;;;1.80;;
62863;SDS011;48954;59.950;11.014;2023-07-31T06:32:38;5.40;;;2.00;;
62863;SDS011;48954;59.950;11.014;2023-07-31T06:35:04;4.00;;;1.70;;
62863;SDS011;48954;59.950;11.014;2023-07-31T06:37:31;6.50;;;1.70;;
62863;SDS011;48954;59.950;11.014;2023-07-31T06:39:57;6.40;;;2.30;;
62863;SDS011;48954;59.950;11.014;2023-07-31T06:42:23;5.00;;;1.90;;
62863;SDS011;48954;59.950;11.014;2023-07-31T06:44:49;4.90;;;1.70;;
62863;SDS011;48954;59.950;11.014;2023-07-31T06:47:17;5.90;;;1.70;;
62863;SDS011;48954;59.950;11.014;2023-07-31T06:49:55;5.00;;;1.80;;
62863;SDS011;48954;59.950;11.014;2023-07-31T06:52:25;4.70;;;1.80;;
62863;SDS011;48954;59.950;11.014;2023-07-31T06:57:53;4.80;;;1.70;;
62863;SDS011;48954;59.950;11.014;2023-07-31T07:00:36;6.10;;;1.80;;
62863;SDS011;48954;59.950;11.014;2023-07-31T07:03:02;4.70;;;2.30;;
62863;SDS011;48954;59.950;11.014;2023-07-31T07:05:29;4.90;;;1.70;;
62863;SDS011;48954;59.950;11.014;2023-07-31T07:07:55;5.10;;;2.10;;
62863;SDS011;48954;59.950;11.014;2023-07-31T07:10:22;10.10;;;2.30;;
62863;SDS011;48954;59.950;11.014;2023-07-31T07:12:49;4.90;;;1.60;;
62863;SDS011;48954;59.950;11.014;2023-07-31T07:15:16;6.50;;;1.90;;
62863;SDS011;48954;59.950;11.014;2023-07-31T07:17:57;5.50;;;1.80;;
62863;SDS011;48954;59.950;11.014;2023-07-31T07:24:01;6.90;;;1.70;;
62863;SDS011;48954;59.950;11.014;2023-07-31T07:26:37;6.50;;;1.90;;
62863;SDS011;48954;59.950;11.014;2023-07-31T07:29:03;6.30;;;1.80;;
62863;SDS011;48954;59.950;11.014;2023-07-31T07:31:31;4.60;;;1.90;;
62863;SDS011;48954;59.950;11.014;2023-07-31T07:33:58;5.30;;;1.70;;
62863;SDS011;48954;59.950;11.014;2023-07-31T07:36:23;5.80;;;1.70;;
62863;SDS011;48954;59.950;11.014;2023-07-31T07:38:52;5.20;;;1.70;;
62863;SDS011;48954;59.950;11.014;2023-07-31T07:41:18;4.30;;;1.70;;
62863;SDS011;48954;59.950;11.014;2023-07-31T07:43:46;4.30;;;1.50;;
62863;SDS011;48954;59.950;11.014;2023-07-31T07:46:23;4.60;;;1.70;;
62863;SDS011;48954;59.950;11.014;2023-07-31T07:49:04;3.20;;;1.30;;
62863;SDS011;48954;59.950;11.014;2023-07-31T07:51:33;4.60;;;1.60;;
62863;SDS011;48954;59.950;11.014;2023-07-31T07:54:14;4.20;;;1.40;;
62863;SDS011;48954;59.950;11.014;2023-07-31T07:56:43;2.50;;;1.20;;
62863;SDS011;48954;59.950;11.014;2023-07-31T07:59:24;2.80;;;1.40;;
62863;SDS011;48954;59.950;11.014;2023-07-31T08:02:04;4.50;;;1.40;;
62863;SDS011;48954;59.950;11.014;2023-07-31T08:04:48;5.10;;;1.30;;
62863;SDS011;48954;59.950;11.014;2023-07-31T08:07:21;4.80;;;1.40;;
62863;SDS011;48954;59.950;11.014;2023-07-31T08:09:47;4.50;;;1.30;;
62863;SDS011;48954;59.950;11.014;2023-07-31T08:12:15;6.00;;;1.60;;
62863;SDS011;48954;59.950;11.014;2023-07-31T08:14:45;3.60;;;1.50;;
62863;SDS011;48954;59.950;11.014;2023-07-31T08:17:13;4.00;;;1.40;;
62863;SDS011;48954;59.950;11.014;2023-07-31T08:19:53;3.10;;;1.50;;
62863;SDS011;48954;59.950;11.014;2023-07-31T08:22:21;6.10;;;2.00;;
62863;SDS011;48954;59.950;11.014;2023-07-31T08:24:49;2.90;;;1.40;;
62863;SDS011;48954;59.950;11.014;2023-07-31T08:27:16;5.30;;;2.00;;
62863;SDS011;48954;59.950;11.014;2023-07-31T08:29:43;3.00;;;1.40;;
62863;SDS011;48954;59.950;11.014;2023-07-31T08:32:10;4.00;;;1.80;;
62863;SDS011;48954;59.950;11.014;2023-07-31T08:34:37;3.30;;;1.50;;
62863;SDS011;48954;59.950;11.014;2023-07-31T08:37:03;5.10;;;1.40;;
62863;SDS011;48954;59.950;11.014;2023-07-31T08:39:29;4.50;;;1.50;;
62863;SDS011;48954;59.950;11.014;2023-07-31T08:41:59;3.10;;;1.20;;
62863;SDS011;48954;59.950;11.014;2023-07-31T08:44:25;3.70;;;1.40;;
62863;SDS011;48954;59.950;11.014;2023-07-31T08:46:51;3.10;;;1.50;;
62863;SDS011;48954;59.950;11.014;2023-07-31T08:49:18;4.30;;;1.40;;
62863;SDS011;48954;59.950;11.014;2023-07-31T08:51:46;3.40;;;1.30;;
62863;SDS011;48954;59.950;11.014;2023-07-31T08:54:14;6.30;;;1.60;;
62863;SDS011;48954;59.950;11.014;2023-07-31T08:56:40;4.90;;;1.50;;
62863;SDS011;48954;59.950;11.014;2023-07-31T08:59:10;2.80;;;1.30;;
62863;SDS011;48954;59.950;11.014;2023-07-31T09:01:47;2.90;;;1.50;;
62863;SDS011;48954;59.950;11.014;2023-07-31T09:04:16;3.50;;;1.40;;
62863;SDS011;48954;59.950;11.014;2023-07-31T09:06:44;4.50;;;1.60;;
62863;SDS011;48954;59.950;11.014;2023-07-31T09:09:12;2.20;;;1.30;;
62863;SDS011;48954;59.950;11.014;2023-07-31T09:11:38;3.10;;;1.10;;
62863;SDS011;48954;59.950;11.014;2023-07-31T09:14:08;2.90;;;1.10;;
62863;SDS011;48954;59.950;11.014;2023-07-31T09:16:34;2.60;;;1.30;;
62863;SDS011;48954;59.950;11.014;2023-07-31T09:19:02;3.20;;;1.30;;
62863;SDS011;48954;59.950;11.014;2023-07-31T09:21:28;2.90;;;1.00;;
62863;SDS011;48954;59.950;11.014;2023-07-31T09:23:59;4.20;;;1.40;;
62863;SDS011;48954;59.950;11.014;2023-07-31T09:26:35;3.10;;;1.30;;
62863;SDS011;48954;59.950;11.014;2023-07-31T09:29:05;5.30;;;1.50;;
62863;SDS011;48954;59.950;11.014;2023-07-31T09:34:08;2.40;;;1.20;;
62863;SDS011;48954;59.950;11.014;2023-07-31T09:36:39;2.40;;;1.10;;
62863;SDS011;48954;59.950;11.014;2023-07-31T09:39:16;2.40;;;1.30;;
62863;SDS011;48954;59.950;11.014;2023-07-31T09:41:45;2.40;;;1.30;;
62863;SDS011;48954;59.950;11.014;2023-07-31T09:44:13;3.00;;;1.30;;
62863;SDS011;48954;59.950;11.014;2023-07-31T09:46:39;3.60;;;1.30;;
62863;SDS011;48954;59.950;11.014;2023-07-31T09:49:12;3.50;;;1.50;;
62863;SDS011;48954;59.950;11.014;2023-07-31T09:51:40;3.20;;;1.50;;
62863;SDS011;48954;59.950;11.014;2023-07-31T09:54:15;2.90;;;1.60;;
62863;SDS011;48954;59.950;11.014;2023-07-31T09:56:43;3.20;;;1.40;;
62863;SDS011;48954;59.950;11.014;2023-07-31T09:59:11;3.00;;;1.20;;
62863;SDS011;48954;59.950;11.014;2023-07-31T10:01:40;4.50;;;1.40;;
62863;SDS011;48954;59.950;11.014;2023-07-31T10:04:08;3.90;;;1.30;;
62863;SDS011;48954;59.950;11.014;2023-07-31T10:06:38;3.20;;;1.30;;
62863;SDS011;48954;59.950;11.014;2023-07-31T10:09:20;2.70;;;1.30;;
62863;SDS011;48954;59.950;11.014;2023-07-31T10:11:55;4.10;;;1.50;;
62863;SDS011;48954;59.950;11.014;2023-07-31T10:14:31;3.00;;;1.40;;
62863;SDS011;48954;59.950;11.014;2023-07-31T10:17:21;4.10;;;1.40;;
62863;SDS011;48954;59.950;11.014;2023-07-31T10:19:49;3.60;;;1.70;;
62863;SDS011;48954;59.950;11.014;2023-07-31T10:22:15;4.40;;;1.40;;
62863;SDS011;48954;59.950;11.014;2023-07-31T10:24:42;4.30;;;1.40;;
62863;SDS011;48954;59.950;11.014;2023-07-31T10:27:18;2.80;;;1.30;;
62863;SDS011;48954;59.950;11.014;2023-07-31T10:29:44;6.60;;;1.70;;
62863;SDS011;48954;59.950;11.014;2023-07-31T10:32:11;5.20;;;1.60;;
62863;SDS011;48954;59.950;11.014;2023-07-31T10:34:38;3.50;;;1.50;;
62863;SDS011;48954;59.950;11.014;2023-07-31T10:37:25;5.40;;;1.60;;
62863;SDS011;48954;59.950;11.014;2023-07-31T10:40:03;3.60;;;1.40;;
62863;SDS011;48954;59.950;11.014;2023-07-31T10:42:44;3.50;;;1.40;;
62863;SDS011;48954;59.950;11.014;2023-07-31T10:45:32;3.40;;;1.50;;
62863;SDS011;48954;59.950;11.014;2023-07-31T10:50:30;4.60;;;1.90;;
62863;SDS011;48954;59.950;11.014;2023-07-31T10:52:57;3.00;;;1.70;;
62863;SDS011;48954;59.950;11.014;2023-07-31T10:58:14;4.90;;;1.50;;
62863;SDS011;48954;59.950;11.014;2023-07-31T11:00:44;3.40;;;1.50;;
62863;SDS011;48954;59.950;11.014;2023-07-31T11:03:14;4.00;;;1.70;;
62863;SDS011;48954;59.950;11.014;2023-07-31T11:08:21;5.40;;;1.70;;
62863;SDS011;48954;59.950;11.014;2023-07-31T11:13:33;3.30;;;1.70;;
62863;SDS011;48954;59.950;11.014;2023-07-31T11:16:06;4.10;;;1.60;;
62863;SDS011;48954;59.950;11.014;2023-07-31T11:18:32;3.50;;;1.70;;
62863;SDS011;48954;59.950;11.014;2023-07-31T11:20:59;3.60;;;1.50;;
62863;SDS011;48954;59.950;11.014;2023-07-31T11:23:26;5.70;;;1.80;;
62863;SDS011;48954;59.950;11.014;2023-07-31T11:25:53;4.20;;;1.60;;
62863;SDS011;48954;59.950;11.014;2023-07-31T11:28:26;4.00;;;1.70;;
62863;SDS011;48954;59.950;11.014;2023-07-31T11:31:52;3.50;;;1.60;;
62863;SDS011;48954;59.950;11.014;2023-07-31T11:34:50;3.60;;;1.70;;
62863;SDS011;48954;59.950;11.014;2023-07-31T11:37:40;3.30;;;1.70;;
62863;SDS011;48954;59.950;11.014;2023-07-31T11:40:12;2.70;;;1.90;;
62863;SDS011;48954;59.950;11.014;2023-07-31T11:42:52;3.70;;;1.50;;
62863;SDS011;48954;59.950;11.014;2023-07-31T11:45:40;5.40;;;1.90;;
62863;SDS011;48954;59.950;11.014;2023-07-31T11:48:06;4.20;;;1.60;;
62863;SDS011;48954;59.950;11.014;2023-07-31T11:50:33;4.00;;;2.00;;
62863;SDS011;48954;59.950;11.014;2023-07-31T11:53:03;2.60;;;1.70;;
62863;SDS011;48954;59.950;11.014;2023-07-31T11:55:33;2.60;;;1.50;;
62863;SDS011;48954;59.950;11.014;2023-07-31T11:58:01;4.00;;;1.50;;
62863;SDS011;48954;59.950;11.014;2023-07-31T12:00:40;3.70;;;1.70;;
62863;SDS011;48954;59.950;11.014;2023-07-31T12:03:06;3.00;;;1.40;;
62863;SDS011;48954;59.950;11.014;2023-07-31T12:05:34;2.60;;;1.50;;
62863;SDS011;48954;59.950;11.014;2023-07-31T12:08:01;2.90;;;1.30;;
62863;SDS011;48954;59.950;11.014;2023-07-31T12:10:35;2.50;;;1.30;;
62863;SDS011;48954;59.950;11.014;2023-07-31T12:15:40;3.10;;;1.10;;
62863;SDS011;48954;59.950;11.014;2023-07-31T12:18:08;1.70;;;1.00;;
62863;SDS011;48954;59.950;11.014;2023-07-31T12:20:45;2.70;;;1.30;;
62863;SDS011;48954;59.950;11.014;2023-07-31T12:23:22;2.00;;;0.90;;
62863;SDS011;48954;59.950;11.014;2023-07-31T12:25:54;1.90;;;1.00;;
62863;SDS011;48954;59.950;11.014;2023-07-31T12:28:25;2.30;;;1.10;;
62863;SDS011;48954;59.950;11.014;2023-07-31T12:30:51;2.50;;;1.10;;
62863;SDS011;48954;59.950;11.014;2023-07-31T12:33:23;2.40;;;1.10;;
62863;SDS011;48954;59.950;11.014;2023-07-31T12:35:49;3.30;;;1.30;;
62863;SDS011;48954;59.950;11.014;2023-07-31T12:38:15;2.60;;;1.50;;
62863;SDS011;48954;59.950;11.014;2023-07-31T12:40:42;2.30;;;1.40;;
62863;SDS011;48954;59.950;11.014;2023-07-31T12:43:08;3.40;;;1.30;;
62863;SDS011;48954;59.950;11.014;2023-07-31T12:45:34;3.40;;;1.30;;
62863;SDS011;48954;59.950;11.014;2023-07-31T12:48:01;2.50;;;1.30;;
62863;SDS011;48954;59.950;11.014;2023-07-31T12:50:37;2.50;;;1.10;;
62863;SDS011;48954;59.950;11.014;2023-07-31T12:53:04;2.80;;;1.20;;
62863;SDS011;48954;59.950;11.014;2023-07-31T12:55:30;2.60;;;1.40;;
62863;SDS011;48954;59.950;11.014;2023-07-31T12:57:57;4.20;;;1.20;;
62863;SDS011;48954;59.950;11.014;2023-07-31T13:00:24;2.30;;;1.20;;
62863;SDS011;48954;59.950;11.014;2023-07-31T13:02:51;1.70;;;1.10;;
62863;SDS011;48954;59.950;11.014;2023-07-31T13:05:17;2.80;;;1.10;;
62863;SDS011;48954;59.950;11.014;2023-07-31T13:07:44;2.30;;;1.40;;
62863;SDS011;48954;59.950;11.014;2023-07-31T13:10:10;2.70;;;1.50;;
62863;SDS011;48954;59.950;11.014;2023-07-31T13:12:38;4.90;;;1.40;;
62863;SDS011;48954;59.950;11.014;2023-07-31T13:15:05;6.60;;;1.60;;
62863;SDS011;48954;59.950;11.014;2023-07-31T13:17:34;3.00;;;1.30;;
62863;SDS011;48954;59.950;11.014;2023-07-31T13:20:02;2.50;;;1.40;;
62863;SDS011;48954;59.950;11.014;2023-07-31T13:22:28;2.40;;;1.20;;
62863;SDS011;48954;59.950;11.014;2023-07-31T13:24:54;2.50;;;1.30;;
62863;SDS011;48954;59.950;11.014;2023-07-31T13:27:21;3.50;;;2.00;;
62863;SDS011;48954;59.950;11.014;2023-07-31T13:29:48;3.80;;;1.70;;
62863;SDS011;48954;59.950;11.014;2023-07-31T13:32:15;3.00;;;1.30;;
62863;SDS011;48954;59.950;11.014;2023-07-31T13:34:45;2.70;;;1.40;;
62863;SDS011;48954;59.950;11.014;2023-07-31T13:37:16;3.30;;;1.60;;
62863;SDS011;48954;59.950;11.014;2023-07-31T13:39:42;2.30;;;1.40;;
62863;SDS011;48954;59.950;11.014;2023-07-31T13:42:08;2.90;;;1.50;;
62863;SDS011;48954;59.950;11.014;2023-07-31T13:44:34;3.90;;;1.50;;
62863;SDS011;48954;59.950;11.014;2023-07-31T13:47:01;2.00;;;1.20;;
62863;SDS011;48954;59.950;11.014;2023-07-31T13:49:27;3.60;;;1.60;;
62863;SDS011;48954;59.950;11.014;2023-07-31T13:51:54;2.70;;;1.30;;
62863;SDS011;48954;59.950;11.014;2023-07-31T13:54:21;2.70;;;1.30;;
62863;SDS011;48954;59.950;11.014;2023-07-31T13:56:48;3.20;;;1.40;;
62863;SDS011;48954;59.950;11.014;2023-07-31T13:59:14;1.90;;;1.20;;
62863;SDS011;48954;59.950;11.014;2023-07-31T14:01:40;3.40;;;1.30;;
62863;SDS011;48954;59.950;11.014;2023-07-31T14:04:06;1.90;;;1.10;;
62863;SDS011;48954;59.950;11.014;2023-07-31T14:06:32;3.20;;;1.20;;
62863;SDS011;48954;59.950;11.014;2023-07-31T14:08:58;2.30;;;1.20;;
62863;SDS011;48954;59.950;11.014;2023-07-31T14:17:35;2.10;;;1.20;;
62863;SDS011;48954;59.950;11.014;2023-07-31T14:20:02;3.50;;;1.30;;
62863;SDS011;48954;59.950;11.014;2023-07-31T14:22:33;2.30;;;1.20;;
62863;SDS011;48954;59.950;11.014;2023-07-31T14:25:00;2.10;;;1.10;;
62863;SDS011;48954;59.950;11.014;2023-07-31T14:27:40;2.30;;;1.10;;
62863;SDS011;48954;59.950;11.014;2023-07-31T14:30:06;2.20;;;1.20;;
62863;SDS011;48954;59.950;11.014;2023-07-31T14:32:42;2.50;;;1.20;;
62863;SDS011;48954;59.950;11.014;2023-07-31T14:35:09;1.70;;;1.00;;
62863;SDS011;48954;59.950;11.014;2023-07-31T14:37:39;2.20;;;1.20;;
62863;SDS011;48954;59.950;11.014;2023-07-31T14:40:10;2.50;;;1.10;;
62863;SDS011;48954;59.950;11.014;2023-07-31T14:42:40;2.70;;;1.40;;
62863;SDS011;48954;59.950;11.014;2023-07-31T14:45:07;2.90;;;1.40;;
62863;SDS011;48954;59.950;11.014;2023-07-31T14:47:33;2.70;;;1.40;;
62863;SDS011;48954;59.950;11.014;2023-07-31T14:49:59;1.90;;;1.20;;
62863;SDS011;48954;59.950;11.014;2023-07-31T14:52:30;1.90;;;1.30;;
62863;SDS011;48954;59.950;11.014;2023-07-31T14:54:58;2.40;;;1.20;;
62863;SDS011;48954;59.950;11.014;2023-07-31T14:57:24;2.50;;;1.30;;
62863;SDS011;48954;59.950;11.014;2023-07-31T14:59:58;2.30;;;1.20;;
62863;SDS011;48954;59.950;11.014;2023-07-31T15:02:26;1.90;;;1.20;;
62863;SDS011;48954;59.950;11.014;2023-07-31T15:08:14;1.90;;;1.30;;
62863;SDS011;48954;59.950;11.014;2023-07-31T15:10:41;2.40;;;1.20;;
62863;SDS011;48954;59.950;11.014;2023-07-31T15:19:21;2.90;;;1.40;;
62863;SDS011;48954;59.950;11.014;2023-07-31T15:24:50;2.50;;;1.20;;
62863;SDS011;48954;59.950;11.014;2023-07-31T15:27:26;2.60;;;1.50;;
62863;SDS011;48954;59.950;11.014;2023-07-31T15:29:52;2.40;;;1.30;;
62863;SDS011;48954;59.950;11.014;2023-07-31T15:32:18;2.40;;;1.40;;
62863;SDS011;48954;59.950;11.014;2023-07-31T15:34:45;3.30;;;1.70;;
62863;SDS011;48954;59.950;11.014;2023-07-31T15:37:12;3.00;;;1.50;;
62863;SDS011;48954;59.950;11.014;2023-07-31T15:39:38;3.60;;;1.50;;